Aérodrome :
LOGIN :

S'inscrire | Disclaimer

   EN    FR    IT 

 










Légende :    VFR   VFR Marginal   IFR   IFR Intensif   IFR Très Intensif
Visi : 
Plafond : 
>= 8 km
>= 3000ft
5 à 8 km
1000 à 3000 ft
1500m à 5 km
500 à 1000 ft
800 à 1500m
200 à 500 ft
< 800m
< 200 ft
Symboles :   Orages  Brouillard  Fortes neiges  Fortes précipitations  Vent > 20 kt
SIGMETs :   Divers  Orages  Givrage  Turbulence  Onde Orograph.  Cendres Volcan.






- Altitude de l'aérodrome : 375 ft
- Code IATA : MST


EHBK - Maastricht Aachen

DERNIER METAR :
  • 221455Z AUTO 31007KT 250V340 9000 OVC009 06/04 Q1034 TEMPO BKN008

METARs EXPIRÉS :
  • 221425Z AUTO 29005KT 240V340 9000 OVC010 06/04 Q1034 TEMPO BKN008
  • 221355Z AUTO 28004KT 220V320 8000 FEW009 SCT011 OVC013 06/04 Q1034 TEMPO BKN008
  • 221325Z AUTO 26004KT 200V320 7000 SCT008 BKN009 BKN012 06/04 Q1034 BECMG 8000 BKN014
  • 221255Z AUTO 26005KT 220V310 7000 FEW007 BKN008 OVC017 06/04 Q1034 BECMG 8000 BKN014

TAF AMD TAF EHBK
Valide du 22 à 14h jusqu'au 23 à 18h UTC


221417Z 2214/2318 25005KT 9999 BKN012
TEMPO 2214/2224 6000 -DZ BKN006
BECMG 2300/2303 0600 FG BKN000
BECMG 2311/2314 8000 NSW SCT012



MET'MAP, la Météo Aéronautique d'un coup d'oeil ! - Copyright ORBIFLY Décembre 2007 - Disclaimer

ORBIFLY MET'MAP TEAM :

Programmation & Développement : Alexandra Zaïnal
Sur une idée originale de : Baudouin d'Aumeries
Assistance à la programmation : Marc-Olivier Méhu
Soutien technique & logistique : Manuel Goepfert

Contact : metmap@orbifly.com




SOURCES & CREDITS :

   NOAA